Saint Louis, Missouri
Traffic Map
Current Weather Conditions
Saint Louis, Missouri
Overcast
Overcast
13°
Feels Like: 13°
Wind Chill: 13° Ceiling: 10000
Heat Index: 13° Visibility: 10mi
Dew Point: Wind: 10mph
Humidity: 57% Direction: 230° (SW)
Pressure: 29.76in Gusts: 0mph
Raw Report DataKCPS 040853Z AUTO 23009KT 10SM OVC100 13/05 A2976 RMK AO2 SLP078 T01330050 58030
Traffic Incident Summary
Active as of:
Severity:
Category:
InformationThere was an issue retrieving the traffic information for this location. Please try a different location or try again shortly.
Advertisements
Track Severe Weather on mobile